Time;durP1;ratioP1;P1;durP2;ratioP2;P2;SDS_P1;SDS_P2;PMS_P1;PMS_P2;Temp;Humidity;BMP_temperature;BMP_pressure;BME280_temperature;BME280_humidity;BME280_pressure;Samples;Min_cycle;Max_cycle;Signal;HPM_P1;HPM_P2
2023/09/14 00:01:00;;;;;;;0.80;0.70;;;22.50;66.80;;;;;;6290536;28;20021;-71
2023/09/14 00:04:00;;;;;;;0.93;0.77;;;22.50;66.80;;;;;;6289358;28;20052;-72
2023/09/14 00:07:01;;;;;;;1.00;0.90;;;22.50;66.80;;;;;;6290260;28;20039;-72
2023/09/14 00:10:02;;;;;;;0.75;0.70;;;22.50;66.80;;;;;;6289810;28;20075;-72
2023/09/14 00:13:03;;;;;;;0.70;0.70;;;22.50;66.80;;;;;;6289995;28;20028;-72
2023/09/14 00:16:04;;;;;;;0.80;0.80;;;22.50;66.80;;;;;;6282992;28;20083;-72
2023/09/14 00:19:05;;;;;;;1.48;0.65;;;22.50;66.80;;;;;;6290898;28;20402;-72
2023/09/14 00:22:05;;;;;;;1.00;0.80;;;22.50;66.80;;;;;;6291811;28;20414;-72
2023/09/14 00:25:06;;;;;;;1.10;1.00;;;22.50;66.80;;;;;;6289880;28;20073;-72
2023/09/14 00:28:07;;;;;;;1.75;0.90;;;22.50;66.80;;;;;;6291502;28;20050;-71
2023/09/14 00:31:07;;;;;;;1.13;0.88;;;22.50;66.80;;;;;;6291873;28;20108;-72
2023/09/14 00:34:08;;;;;;;0.57;0.57;;;22.50;66.80;;;;;;6291410;28;20028;-72
2023/09/14 00:37:09;;;;;;;0.98;0.60;;;22.50;66.80;;;;;;6289766;28;20101;-72
2023/09/14 00:40:11;;;;;;;0.63;0.60;;;22.50;66.80;;;;;;6291067;28;20021;-72
2023/09/14 00:43:13;;;;;;;1.00;0.77;;;22.50;66.80;;;;;;6290262;28;20111;-72
2023/09/14 00:46:14;;;;;;;1.30;0.85;;;22.50;66.80;;;;;;6294281;28;20024;-72
2023/09/14 00:49:15;;;;;;;0.70;0.70;;;22.50;66.80;;;;;;6294101;28;20526;-72
2023/09/14 00:52:16;;;;;;;1.05;0.73;;;22.40;66.70;;;;;;6288639;28;20098;-72
2023/09/14 00:55:17;;;;;;;0.70;0.60;;;22.50;66.80;;;;;;6295354;28;20475;-72
2023/09/14 00:58:18;;;;;;;1.50;0.88;;;22.50;66.80;;;;;;6294987;28;20024;-72
2023/09/14 01:01:19;;;;;;;0.98;0.88;;;22.50;66.80;;;;;;6293538;28;20029;-72
2023/09/14 01:04:20;;;;;;;0.80;0.80;;;22.50;66.80;;;;;;6294945;28;20025;-72
2023/09/14 01:07:21;;;;;;;0.50;0.50;;;22.50;66.80;;;;;;6294611;28;20510;-72
2023/09/14 01:10:23;;;;;;;0.80;0.60;;;22.50;66.80;;;;;;6294389;28;20016;-72
2023/09/14 01:13:36;;;;;;;0.52;0.52;;;22.50;66.80;;;;;;6294847;28;20044;-72
2023/09/14 01:17:07;;;;;;;1.20;0.82;;;22.50;66.80;;;;;;6294533;28;20024;-72
2023/09/14 01:20:38;;;;;;;0.90;0.75;;;22.50;66.80;;;;;;6287083;28;20028;-72
2023/09/14 01:24:11;;;;;;;0.95;0.70;;;22.50;66.80;;;;;;6294723;28;20025;-72
2023/09/14 01:27:12;;;;;;;1.58;0.68;;;22.50;66.80;;;;;;6278066;28;20041;-72
2023/09/14 01:30:13;;;;;;;0.75;0.60;;;22.50;66.80;;;;;;6294112;28;20054;-72
2023/09/14 01:33:16;;;;;;;1.45;0.73;;;22.50;66.80;;;;;;6294445;28;20052;-72
2023/09/14 01:36:25;;;;;;;1.40;0.68;;;22.50;66.80;;;;;;6294434;28;20033;-72
2023/09/14 01:39:27;;;;;;;0.98;0.85;;;22.50;66.80;;;;;;6294494;28;20479;-72
2023/09/14 01:42:29;;;;;;;0.88;0.57;;;22.50;66.80;;;;;;6293675;28;20586;-72
2023/09/14 01:45:31;;;;;;;0.63;0.60;;;22.50;66.80;;;;;;6292816;28;20448;-72
2023/09/14 01:48:31;;;;;;;0.77;0.68;;;22.50;66.80;;;;;;6293390;28;20068;-72
2023/09/14 01:51:32;;;;;;;1.30;0.70;;;22.50;66.80;;;;;;6289126;28;20024;-72
2023/09/14 01:54:33;;;;;;;0.80;0.75;;;22.50;66.80;;;;;;6293723;28;20484;-71
2023/09/14 01:57:34;;;;;;;1.00;0.70;;;22.50;66.80;;;;;;6293535;28;20029;-72
2023/09/14 02:00:35;;;;;;;1.05;0.90;;;22.50;66.80;;;;;;6292241;28;20032;-72
2023/09/14 02:03:35;;;;;;;1.00;0.75;;;22.40;66.70;;;;;;6293400;28;20052;-72
2023/09/14 02:06:36;;;;;;;1.10;0.80;;;22.50;66.80;;;;;;6293419;28;20107;-72
2023/09/14 02:09:37;;;;;;;0.73;0.60;;;22.40;66.70;;;;;;6292434;28;20078;-72
2023/09/14 02:12:37;;;;;;;0.93;0.75;;;22.50;66.80;;;;;;6293677;28;20055;-74
2023/09/14 02:15:38;;;;;;;0.80;0.75;;;22.50;66.80;;;;;;6291760;28;20025;-72
2023/09/14 02:18:39;;;;;;;0.75;0.60;;;22.50;66.80;;;;;;6293023;28;20031;-72
2023/09/14 02:21:40;;;;;;;0.70;0.60;;;22.50;66.80;;;;;;6293095;28;20471;-72
2023/09/14 02:24:41;;;;;;;0.60;0.60;;;22.50;66.80;;;;;;6293334;28;20082;-72
2023/09/14 02:27:41;;;;;;;0.85;0.60;;;22.50;66.80;;;;;;6293310;28;20024;-72
2023/09/14 02:30:42;;;;;;;0.90;0.70;;;22.50;66.80;;;;;;6291519;28;20137;-72
2023/09/14 02:33:43;;;;;;;0.90;0.80;;;22.40;66.70;;;;;;6292979;28;20035;-72
2023/09/14 02:36:44;;;;;;;0.63;0.60;;;22.50;66.80;;;;;;6291448;28;20040;-70
2023/09/14 02:39:44;;;;;;;0.85;0.60;;;22.50;66.80;;;;;;6291405;28;20578;-71
2023/09/14 02:42:45;;;;;;;1.02;0.88;;;22.40;66.70;;;;;;6292221;28;20029;-70
2023/09/14 02:45:46;;;;;;;0.63;0.63;;;22.50;66.80;;;;;;6292909;28;20020;-70
2023/09/14 02:48:46;;;;;;;1.10;0.60;;;22.40;66.70;;;;;;6292339;28;20093;-71
2023/09/14 02:51:47;;;;;;;0.75;0.60;;;22.50;66.80;;;;;;6286870;28;20029;-71
2023/09/14 02:54:48;;;;;;;1.00;0.80;;;22.40;66.70;;;;;;6289794;28;20081;-70
2023/09/14 02:57:49;;;;;;;0.60;0.50;;;22.40;66.70;;;;;;6290798;28;20491;-70
2023/09/14 03:00:49;;;;;;;0.75;0.60;;;22.40;66.70;;;;;;6290972;28;20024;-71
2023/09/14 03:03:50;;;;;;;0.80;0.55;;;22.40;66.70;;;;;;6290519;28;20522;-70
2023/09/14 03:06:51;;;;;;;0.70;0.70;;;22.40;66.70;;;;;;6290004;28;20056;-70
2023/09/14 03:09:52;;;;;;;0.70;0.60;;;22.40;66.70;;;;;;6292213;28;20474;-71
2023/09/14 03:12:52;;;;;;;0.73;0.60;;;22.40;66.70;;;;;;6292849;28;20095;-71
2023/09/14 03:15:58;;;;;;;1.08;0.90;;;22.40;66.70;;;;;;6291715;28;20096;-70
2023/09/14 03:18:58;;;;;;;1.30;0.73;;;22.40;66.70;;;;;;6292124;28;20020;-70
2023/09/14 03:21:59;;;;;;;0.77;0.70;;;22.40;66.70;;;;;;6291086;28;20016;-70
2023/09/14 03:25:00;;;;;;;1.65;0.70;;;22.40;66.70;;;;;;6290374;28;20352;-71
2023/09/14 03:28:00;;;;;;;0.85;0.63;;;22.40;66.70;;;;;;6291803;28;20024;-70
2023/09/14 03:31:01;;;;;;;0.82;0.70;;;22.40;66.70;;;;;;6291861;28;20673;-71
2023/09/14 03:34:02;;;;;;;0.65;0.60;;;22.40;66.70;;;;;;6292144;28;20029;-70
2023/09/14 03:37:03;;;;;;;1.08;0.90;;;22.40;66.70;;;;;;6290897;28;20040;-70
2023/09/14 03:40:08;;;;;;;0.90;0.80;;;22.40;66.70;;;;;;6291806;28;20020;-70
2023/09/14 03:43:09;;;;;;;0.80;0.70;;;22.40;66.70;;;;;;6290988;28;20067;-70
2023/09/14 03:46:14;;;;;;;1.00;0.80;;;22.40;66.70;;;;;;6290231;28;20360;-70
2023/09/14 03:49:14;;;;;;;0.52;0.52;;;22.40;66.70;;;;;;6292490;28;20056;-70
2023/09/14 03:52:15;;;;;;;1.25;0.77;;;22.40;66.70;;;;;;6290371;28;20032;-70
2023/09/14 03:55:16;;;;;;;0.85;0.70;;;22.40;66.70;;;;;;6289812;28;20398;-70
2023/09/14 03:58:16;;;;;;;0.50;0.50;;;22.50;66.80;;;;;;6291165;28;20091;-70
2023/09/14 04:01:17;;;;;;;0.70;0.65;;;22.50;66.80;;;;;;6291818;28;20020;-71
2023/09/14 04:04:18;;;;;;;1.05;0.80;;;22.40;66.70;;;;;;6290213;28;20390;-70
2023/09/14 04:07:18;;;;;;;0.57;0.57;;;22.50;66.80;;;;;;6290190;28;20478;-71
2023/09/14 04:10:19;;;;;;;0.80;0.70;;;22.50;66.80;;;;;;6291589;28;20029;-70
2023/09/14 04:13:31;;;;;;;1.40;0.77;;;22.40;66.70;;;;;;6291112;28;20391;-70
2023/09/14 04:16:32;;;;;;;1.27;0.85;;;22.50;66.80;;;;;;6291296;28;20073;-70
2023/09/14 04:19:32;;;;;;;1.20;0.77;;;22.50;66.80;;;;;;6290557;28;20017;-70
2023/09/14 04:22:33;;;;;;;1.10;0.45;;;22.50;66.70;;;;;;6296026;28;20633;-70
2023/09/14 04:25:34;;;;;;;0.93;0.82;;;22.50;66.80;;;;;;6296129;28;20054;-70
2023/09/14 04:28:34;;;;;;;0.95;0.60;;;22.50;66.80;;;;;;6295710;28;20020;-70
2023/09/14 04:31:35;;;;;;;0.68;0.68;;;22.50;66.80;;;;;;6294366;28;20432;-71
2023/09/14 04:34:36;;;;;;;0.65;0.50;;;22.50;66.80;;;;;;6295794;28;20074;-70
2023/09/14 04:37:36;;;;;;;0.82;0.63;;;22.50;66.80;;;;;;6293661;28;20041;-70
2023/09/14 04:40:39;;;;;;;0.70;0.70;;;22.50;66.80;;;;;;6296007;28;20089;-70
2023/09/14 04:43:40;;;;;;;0.90;0.70;;;22.50;66.80;;;;;;6295611;28;20099;-70
2023/09/14 04:46:40;;;;;;;0.57;0.57;;;22.50;66.80;;;;;;6295247;28;20027;-70
2023/09/14 04:49:41;;;;;;;0.98;0.80;;;22.50;66.80;;;;;;6294959;28;20043;-71
2023/09/14 04:52:42;;;;;;;1.00;0.60;;;22.50;66.80;;;;;;6287396;28;20024;-71
2023/09/14 04:55:47;;;;;;;0.70;0.60;;;22.50;66.80;;;;;;6295100;28;20475;-77
2023/09/14 04:58:47;;;;;;;0.57;0.57;;;22.50;66.80;;;;;;6280758;28;20063;-73
2023/09/14 05:01:48;;;;;;;0.68;0.50;;;22.50;66.80;;;;;;6291400;28;20028;-73
2023/09/14 05:04:49;;;;;;;7.15;1.85;;;22.50;66.60;;;;;;6290885;28;20496;-73
2023/09/14 05:07:50;;;;;;;3.80;1.73;;;22.40;65.40;;;;;;6296553;28;20048;-72
2023/09/14 05:10:51;;;;;;;6.63;2.25;;;22.40;63.60;;;;;;6298593;28;20405;-72
2023/09/14 05:13:52;;;;;;;2.80;1.60;;;22.30;62.70;;;;;;6293915;28;20021;-72
2023/09/14 05:16:53;;;;;;;5.72;2.00;;;22.40;63.70;;;;;;6300979;28;20374;-72
2023/09/14 05:19:54;;;;;;;5.60;1.80;;;22.30;62.90;;;;;;6295152;28;20021;-71
2023/09/14 05:22:55;;;;;;;3.60;1.50;;;22.30;63.70;;;;;;6292011;28;20504;-70
2023/09/14 05:25:56;;;;;;;8.90;2.60;;;22.30;62.70;;;;;;6293312;28;20537;-71
2023/09/14 05:28:56;;;;;;;10.77;2.78;;;22.30;62.60;;;;;;6292613;28;20043;-71
2023/09/14 05:31:57;;;;;;;6.28;2.58;;;22.40;61.50;;;;;;6293076;28;20028;-71
2023/09/14 05:34:58;;;;;;;6.47;2.88;;;22.40;61.60;;;;;;6282183;28;20139;-71
2023/09/14 05:37:59;;;;;;;5.70;2.67;;;22.40;60.50;;;;;;6283566;28;20458;-71
2023/09/14 05:41:00;;;;;;;4.68;2.70;;;22.40;61.30;;;;;;6291740;28;20340;-71
2023/09/14 05:44:03;;;;;;;6.47;2.53;;;22.50;60.40;;;;;;6292076;28;20021;-71
2023/09/14 05:47:04;;;;;;;4.90;2.50;;;22.50;61.30;;;;;;6291911;28;20047;-71
2023/09/14 05:50:10;;;;;;;5.13;2.53;;;22.50;60.40;;;;;;6292411;28;20410;-71
2023/09/14 05:53:11;;;;;;;4.43;2.55;;;22.60;61.10;;;;;;6289292;28;20100;-71
2023/09/14 05:56:12;;;;;;;5.05;2.60;;;22.60;61.40;;;;;;6292958;28;20473;-71
2023/09/14 05:59:12;;;;;;;4.65;1.90;;;22.60;62.60;;;;;;6294196;28;20028;-71
2023/09/14 06:02:13;;;;;;;8.38;2.00;;;22.60;63.00;;;;;;6294365;28;20025;-71
2023/09/14 06:05:14;;;;;;;9.95;2.83;;;22.60;63.10;;;;;;6294687;28;20028;-71
2023/09/14 06:08:15;;;;;;;5.53;2.17;;;22.60;63.30;;;;;;6292948;28;20035;-71
2023/09/14 06:11:15;;;;;;;6.72;2.20;;;22.50;62.90;;;;;;6294134;28;20029;-70
2023/09/14 06:14:16;;;;;;;8.45;2.03;;;22.60;63.20;;;;;;6293457;28;20492;-70
2023/09/14 06:17:17;;;;;;;4.38;1.98;;;22.50;63.40;;;;;;6291888;28;20113;-70
2023/09/14 06:20:18;;;;;;;4.18;1.70;;;22.50;63.70;;;;;;6293811;28;20153;-70
2023/09/14 06:23:18;;;;;;;4.32;2.10;;;22.50;63.90;;;;;;6293777;28;20047;-70
2023/09/14 06:26:19;;;;;;;7.90;2.25;;;22.50;63.90;;;;;;6294154;28;20475;-70
2023/09/14 06:29:20;;;;;;;4.60;1.85;;;22.50;64.10;;;;;;6293387;28;20032;-70
2023/09/14 06:32:20;;;;;;;6.25;1.73;;;22.50;65.00;;;;;;6294219;28;20032;-70
2023/09/14 06:35:21;;;;;;;5.82;2.00;;;22.50;64.20;;;;;;6295756;28;20031;-70
2023/09/14 06:38:23;;;;;;;5.30;1.88;;;22.50;64.30;;;;;;6293218;28;20041;-70
2023/09/14 06:41:23;;;;;;;9.32;2.15;;;22.50;64.40;;;;;;6294761;28;20023;-70
2023/09/14 06:44:25;;;;;;;4.10;2.00;;;22.50;64.50;;;;;;6292207;28;20039;-70
2023/09/14 06:47:26;;;;;;;4.03;1.80;;;22.50;64.50;;;;;;6293563;28;20025;-70
2023/09/14 06:50:26;;;;;;;3.10;1.80;;;22.50;64.60;;;;;;6293437;28;20044;-70
2023/09/14 06:53:27;;;;;;;2.35;1.58;;;22.50;64.70;;;;;;6289014;28;20406;-70
2023/09/14 06:56:28;;;;;;;4.28;1.75;;;22.50;64.70;;;;;;6292068;28;20533;-70
2023/09/14 06:59:28;;;;;;;3.63;1.83;;;22.50;64.70;;;;;;6292235;28;20032;-70
2023/09/14 07:02:29;;;;;;;3.10;2.00;;;22.50;64.80;;;;;;6292795;28;20094;-70
2023/09/14 07:05:30;;;;;;;2.42;1.52;;;22.50;64.90;;;;;;6292881;28;20021;-71
2023/09/14 07:08:32;;;;;;;2.30;1.70;;;22.50;64.90;;;;;;6292676;28;20069;-70
2023/09/14 07:11:33;;;;;;;3.22;1.75;;;22.50;64.90;;;;;;6294266;28;20506;-70
2023/09/14 07:14:34;;;;;;;3.08;1.50;;;22.50;64.90;;;;;;6292654;28;20645;-70
2023/09/14 07:17:35;;;;;;;3.33;1.70;;;22.50;65.00;;;;;;6292303;28;20033;-70
2023/09/14 07:20:36;;;;;;;3.25;1.67;;;22.50;65.00;;;;;;6291048;28;20093;-68
2023/09/14 07:23:36;;;;;;;4.40;1.83;;;22.50;65.20;;;;;;6292622;28;20024;-70
2023/09/14 07:26:41;;;;;;;3.60;1.90;;;22.50;64.70;;;;;;6292891;28;20513;-70
2023/09/14 07:29:42;;;;;;;4.07;2.00;;;22.40;65.50;;;;;;6292450;28;20078;-69
2023/09/14 07:32:42;;;;;;;11.88;2.40;;;22.40;63.70;;;;;;6293365;28;20037;-69
2023/09/14 07:35:45;;;;;;;3.58;1.80;;;22.50;62.00;;;;;;6291422;28;20506;-69
2023/09/14 07:38:45;;;;;;;5.05;1.92;;;22.50;62.60;;;;;;6290954;28;20044;-69
2023/09/14 07:41:47;;;;;;;3.47;1.65;;;22.50;63.10;;;;;;6292846;28;20443;-69
2023/09/14 07:44:47;;;;;;;2.42;1.50;;;22.50;63.90;;;;;;6291895;28;20052;-69
2023/09/14 07:47:48;;;;;;;2.78;1.83;;;22.50;64.00;;;;;;6291489;28;20032;-69
2023/09/14 07:50:49;;;;;;;2.78;1.67;;;22.50;64.20;;;;;;6284854;28;20024;-69
2023/09/14 07:53:50;;;;;;;6.40;1.70;;;22.50;64.30;;;;;;6293860;28;20127;-69
2023/09/14 07:56:50;;;;;;;3.30;1.75;;;22.50;64.60;;;;;;6297593;28;20056;-69
2023/09/14 07:59:52;;;;;;;4.75;2.22;;;22.50;64.10;;;;;;6299597;28;20036;-69
2023/09/14 08:02:53;;;;;;;3.17;1.77;;;22.60;64.00;;;;;;6296282;28;20025;-70
2023/09/14 08:05:54;;;;;;;5.75;1.77;;;22.60;64.30;;;;;;6297233;28;20074;-69
2023/09/14 08:08:55;;;;;;;7.00;1.80;;;22.50;64.00;;;;;;6295874;28;20032;-69
2023/09/14 08:11:56;;;;;;;3.08;1.45;;;22.50;64.00;;;;;;6295472;28;20082;-69
2023/09/14 08:14:56;;;;;;;9.93;1.92;;;22.50;63.30;;;;;;6298470;28;20029;-69
2023/09/14 08:17:57;;;;;;;6.70;1.88;;;22.50;63.20;;;;;;6290509;28;20032;-69
2023/09/14 08:20:58;;;;;;;4.70;1.90;;;22.50;63.00;;;;;;6296827;28;20407;-69
2023/09/14 08:23:59;;;;;;;5.65;1.65;;;22.50;63.80;;;;;;6295816;28;20025;-69
2023/09/14 08:27:00;;;;;;;5.38;1.83;;;22.50;64.20;;;;;;6295777;28;20021;-70
2023/09/14 08:30:04;;;;;;;7.28;1.90;;;22.60;64.40;;;;;;6295963;28;20027;-70
2023/09/14 08:33:07;;;;;;;4.40;1.90;;;22.60;64.50;;;;;;6297307;28;20383;-69
2023/09/14 08:36:08;;;;;;;4.82;1.52;;;22.60;63.90;;;;;;6289232;28;20021;-69
2023/09/14 08:39:09;;;;;;;5.97;1.83;;;22.60;64.00;;;;;;6297076;28;20147;-69
2023/09/14 08:42:10;;;;;;;7.07;2.15;;;22.60;63.80;;;;;;6295855;28;20052;-69
2023/09/14 08:45:12;;;;;;;3.75;1.50;;;22.60;64.40;;;;;;6298426;28;20433;-69
2023/09/14 08:48:16;;;;;;;1.95;1.40;;;22.60;64.90;;;;;;6298969;28;20429;-69
2023/09/14 08:51:20;;;;;;;2.70;1.45;;;22.50;65.00;;;;;;6294930;28;20040;-69
2023/09/14 08:54:21;;;;;;;2.55;1.55;;;22.50;64.90;;;;;;6296691;28;20025;-69
2023/09/14 08:57:23;;;;;;;3.78;1.50;;;22.50;64.70;;;;;;6296050;28;20074;-70
2023/09/14 09:00:26;;;;;;;5.82;1.65;;;22.50;64.70;;;;;;6296536;28;20035;-69
2023/09/14 09:03:28;;;;;;;4.85;1.50;;;22.50;64.70;;;;;;6296781;28;20028;-70
2023/09/14 09:06:30;;;;;;;3.20;1.40;;;22.50;64.90;;;;;;6295015;28;20025;-70
2023/09/14 09:09:31;;;;;;;3.70;1.35;;;22.50;65.00;;;;;;6296732;28;20316;-70
2023/09/14 09:12:32;;;;;;;7.60;1.85;;;22.50;65.40;;;;;;6294521;28;20036;-70
2023/09/14 09:15:36;;;;;;;3.97;1.58;;;22.50;63.80;;;;;;6297257;28;20031;-69
2023/09/14 09:19:06;;;;;;;4.70;1.83;;;22.60;64.10;;;;;;6294962;28;20525;-69
2023/09/14 09:22:07;;;;;;;4.88;2.05;;;22.60;64.10;;;;;;6289093;28;20051;-69
2023/09/14 09:25:09;;;;;;;5.25;2.00;;;22.60;63.90;;;;;;6295989;28;20491;-69
2023/09/14 09:28:10;;;;;;;6.20;2.30;;;22.60;64.20;;;;;;6294217;28;20059;-69
2023/09/14 09:31:11;;;;;;;4.45;2.30;;;22.60;64.40;;;;;;6295849;28;20032;-69
2023/09/14 09:34:13;;;;;;;5.63;2.25;;;22.60;64.30;;;;;;6297251;28;20398;-69
2023/09/14 09:37:13;;;;;;;4.13;2.08;;;22.50;64.20;;;;;;6294075;28;20041;-69
2023/09/14 09:40:23;;;;;;;3.50;1.60;;;22.60;64.40;;;;;;6295245;28;21020;-69
2023/09/14 09:43:24;;;;;;;3.15;1.25;;;22.50;64.20;;;;;;6295539;28;20032;-69
2023/09/14 09:46:25;;;;;;;4.20;1.50;;;22.50;64.20;;;;;;6295049;28;20390;-70
2023/09/14 09:49:29;;;;;;;4.25;1.58;;;22.50;64.30;;;;;;6294692;28;20028;-69
2023/09/14 09:52:32;;;;;;;2.78;1.48;;;22.50;64.40;;;;;;6288660;28;20032;-69
2023/09/14 09:55:33;;;;;;;3.47;1.63;;;22.50;64.40;;;;;;6294939;28;20017;-69
2023/09/14 09:58:38;;;;;;;2.65;1.55;;;22.50;64.50;;;;;;6293214;28;20029;-70
2023/09/14 10:01:40;;;;;;;2.85;1.60;;;22.50;64.50;;;;;;6294764;28;20087;-69
2023/09/14 10:04:52;;;;;;;2.90;1.48;;;22.50;64.60;;;;;;6293422;28;20028;-70
2023/09/14 10:07:52;;;;;;;3.22;1.52;;;22.50;64.70;;;;;;6294436;28;20039;-69
2023/09/14 10:10:53;;;;;;;4.32;1.70;;;22.50;64.70;;;;;;6293453;28;20422;-69
2023/09/14 10:13:58;;;;;;;3.00;1.45;;;22.50;64.70;;;;;;6294543;28;20028;-70
2023/09/14 10:17:03;;;;;;;2.80;1.50;;;22.50;64.70;;;;;;6291133;28;20035;-69
2023/09/14 10:20:11;;;;;;;2.60;1.58;;;22.50;64.80;;;;;;6294718;28;20021;-69
2023/09/14 10:23:15;;;;;;;2.67;1.63;;;22.50;64.90;;;;;;6286741;28;20522;-69
2023/09/14 10:26:16;;;;;;;3.03;1.45;;;22.50;64.90;;;;;;6294485;28;20429;-69
2023/09/14 10:29:18;;;;;;;3.65;1.48;;;22.50;64.90;;;;;;6293819;28;20477;-70
2023/09/14 10:32:21;;;;;;;3.22;1.58;;;22.50;65.00;;;;;;6294233;28;20064;-69
2023/09/14 10:35:23;;;;;;;2.65;1.38;;;22.50;65.00;;;;;;6293631;28;20399;-69
2023/09/14 10:38:25;;;;;;;3.90;1.58;;;22.50;65.00;;;;;;6293638;28;20044;-70
2023/09/14 10:41:26;;;;;;;1.77;1.00;;;22.50;65.10;;;;;;6292151;28;20082;-69
2023/09/14 10:44:31;;;;;;;2.33;1.30;;;22.50;65.20;;;;;;6292245;28;20406;-70
2023/09/14 10:47:37;;;;;;;2.50;1.20;;;22.50;65.20;;;;;;6293541;28;20107;-70
2023/09/14 10:50:38;;;;;;;2.53;1.27;;;22.50;65.20;;;;;;6293322;28;20035;-69
2023/09/14 10:53:41;;;;;;;1.67;1.33;;;22.50;65.20;;;;;;6291051;28;20241;-69
2023/09/14 10:56:44;;;;;;;2.63;1.40;;;22.50;65.20;;;;;;6293132;28;20526;-70
2023/09/14 10:59:52;;;;;;;2.22;1.20;;;22.50;65.30;;;;;;6292330;28;20034;-69
2023/09/14 11:02:54;;;;;;;1.98;1.33;;;22.50;65.20;;;;;;6293116;28;20043;-69
2023/09/14 11:05:54;;;;;;;3.03;1.48;;;22.50;65.30;;;;;;6293489;28;20027;-70
2023/09/14 11:09:02;;;;;;;2.30;1.42;;;22.50;65.30;;;;;;6292963;28;20130;-70
2023/09/14 11:12:20;;;;;;;2.00;1.40;;;22.50;66.20;;;;;;6293416;28;20033;-69
2023/09/14 11:15:22;;;;;;;1.35;1.02;;;22.50;65.30;;;;;;6290479;28;20033;-69
2023/09/14 11:18:45;;;;;;;2.30;1.42;;;22.50;65.30;;;;;;6291547;28;20116;-70
2023/09/14 11:21:46;;;;;;;2.53;1.30;;;22.50;65.30;;;;;;6292849;28;20021;-70
2023/09/14 11:24:48;;;;;;;1.75;1.15;;;22.50;65.30;;;;;;6292985;28;20035;-70
2023/09/14 11:27:50;;;;;;;2.67;1.30;;;22.50;65.40;;;;;;6292569;28;20031;-70
2023/09/14 11:30:51;;;;;;;2.90;1.60;;;22.50;65.40;;;;;;6292740;28;20070;-70
2023/09/14 11:33:53;;;;;;;2.30;1.45;;;22.50;65.40;;;;;;6294345;28;20032;-70
2023/09/14 11:36:57;;;;;;;1.65;1.20;;;22.50;65.40;;;;;;6292232;28;20074;-69
2023/09/14 11:40:01;;;;;;;1.67;1.25;;;22.50;65.40;;;;;;6291986;28;20044;-69
2023/09/14 11:43:07;;;;;;;2.47;1.10;;;22.50;65.40;;;;;;6291504;28;20031;-70
2023/09/14 11:46:12;;;;;;;2.53;1.40;;;22.50;65.40;;;;;;6292110;28;20025;-70
2023/09/14 11:49:14;;;;;;;1.25;1.15;;;22.50;65.40;;;;;;6293107;28;20051;-70
2023/09/14 11:52:19;;;;;;;1.75;1.08;;;22.50;65.40;;;;;;6286786;28;20697;-69
2023/09/14 11:55:20;;;;;;;1.65;1.10;;;22.50;65.50;;;;;;6293230;28;20032;-69
2023/09/14 11:58:24;;;;;;;1.80;1.20;;;22.50;65.50;;;;;;6292047;28;20070;-69
2023/09/14 12:01:29;;;;;;;2.08;1.17;;;22.50;65.50;;;;;;6292813;28;20027;-70
2023/09/14 12:04:31;;;;;;;1.85;1.20;;;22.50;65.50;;;;;;6292508;28;20113;-70
2023/09/14 12:07:31;;;;;;;0.93;0.82;;;22.50;65.50;;;;;;6292381;28;20041;-70
2023/09/14 12:10:32;;;;;;;0.95;0.82;;;22.50;65.60;;;;;;6292940;28;20036;-70
2023/09/14 12:13:33;;;;;;;1.65;1.10;;;22.50;65.60;;;;;;6291052;28;20032;-70
2023/09/14 12:16:38;;;;;;;1.77;1.05;;;22.50;65.60;;;;;;6291481;28;20571;-69
2023/09/14 12:19:44;;;;;;;1.85;1.27;;;22.50;65.60;;;;;;6291709;28;20035;-69
2023/09/14 12:22:46;;;;;;;1.95;1.20;;;22.50;65.60;;;;;;6299344;28;20021;-70
2023/09/14 12:25:47;;;;;;;1.25;0.93;;;22.50;65.60;;;;;;6291907;28;20025;-70
2023/09/14 12:28:58;;;;;;;1.48;1.10;;;22.50;65.60;;;;;;6292086;28;20521;-70
2023/09/14 12:31:59;;;;;;;2.83;1.05;;;22.50;65.60;;;;;;6290471;28;20112;-70
2023/09/14 12:34:59;;;;;;;1.40;1.05;;;22.50;65.60;;;;;;6291881;28;20079;-69
2023/09/14 12:38:03;;;;;;;1.40;1.15;;;22.50;65.60;;;;;;6291607;28;20052;-69
2023/09/14 12:41:05;;;;;;;1.60;1.10;;;22.50;65.60;;;;;;6292596;28;20280;-69
2023/09/14 12:44:08;;;;;;;1.30;0.90;;;22.50;65.60;;;;;;6296899;28;20044;-70
2023/09/14 12:47:09;;;;;;;2.85;1.20;;;22.50;65.60;;;;;;6296437;28;20079;-70
2023/09/14 12:50:15;;;;;;;1.77;1.25;;;22.50;65.70;;;;;;6296872;28;20023;-69
2023/09/14 12:53:16;;;;;;;1.27;1.00;;;22.50;65.60;;;;;;6290628;28;20021;-70
2023/09/14 12:56:20;;;;;;;1.77;1.00;;;22.50;65.70;;;;;;6296735;28;20035;-70
2023/09/14 12:59:20;;;;;;;1.58;1.00;;;22.50;65.70;;;;;;6296572;28;20028;-69
2023/09/14 13:02:22;;;;;;;1.38;0.90;;;22.50;65.70;;;;;;6296342;28;20028;-70
2023/09/14 13:05:24;;;;;;;2.35;1.20;;;22.50;65.70;;;;;;6295830;28;20039;-70
2023/09/14 13:08:25;;;;;;;1.55;0.82;;;22.50;65.70;;;;;;6296661;28;20032;-69
2023/09/14 13:11:31;;;;;;;1.77;1.25;;;22.50;65.70;;;;;;6295106;28;20025;-69
2023/09/14 13:14:34;;;;;;;1.52;1.10;;;22.50;65.70;;;;;;6295996;28;20033;-70
2023/09/14 13:17:36;;;;;;;1.27;0.98;;;22.50;65.70;;;;;;6294300;28;20021;-70
2023/09/14 13:20:45;;;;;;;1.85;1.08;;;22.50;65.70;;;;;;6296255;28;20032;-70
2023/09/14 13:23:46;;;;;;;1.27;0.93;;;22.50;65.70;;;;;;6294463;28;20484;-70
2023/09/14 13:26:47;;;;;;;1.35;0.80;;;22.50;65.70;;;;;;6295361;28;20037;-70
2023/09/14 13:29:47;;;;;;;1.55;0.85;;;22.50;65.70;;;;;;6299356;28;20029;-70
2023/09/14 13:32:49;;;;;;;1.13;0.82;;;22.50;65.70;;;;;;6293974;28;20034;-70
2023/09/14 13:35:50;;;;;;;1.45;1.00;;;22.50;65.70;;;;;;6294273;28;20036;-70
2023/09/14 13:38:50;;;;;;;0.90;0.80;;;22.50;65.70;;;;;;6295204;28;20408;-70
2023/09/14 13:41:51;;;;;;;1.33;0.90;;;22.50;65.70;;;;;;6295338;28;20309;-70
2023/09/14 13:44:51;;;;;;;1.42;0.93;;;22.50;65.70;;;;;;6293810;28;20483;-69
2023/09/14 13:47:52;;;;;;;1.10;0.90;;;22.50;65.70;;;;;;6295174;28;20052;-70
2023/09/14 13:50:53;;;;;;;1.08;0.88;;;22.50;65.80;;;;;;6290436;28;20027;-70
2023/09/14 13:53:54;;;;;;;1.33;0.90;;;22.50;65.80;;;;;;6293618;28;20039;-70
2023/09/14 13:56:55;;;;;;;1.40;1.00;;;22.50;65.80;;;;;;6295117;28;20024;-70
2023/09/14 13:59:56;;;;;;;1.23;0.77;;;22.50;65.80;;;;;;6295022;28;20439;-70
2023/09/14 14:03:08;;;;;;;1.23;0.82;;;22.50;65.70;;;;;;6294608;28;20028;-69
2023/09/14 14:06:09;;;;;;;1.65;1.05;;;22.40;65.70;;;;;;6287288;28;20372;-69
2023/09/14 14:09:09;;;;;;;1.08;0.77;;;22.50;65.80;;;;;;6294659;28;20103;-70
2023/09/14 14:12:10;;;;;;;1.25;1.00;;;22.50;65.80;;;;;;6294865;28;20479;-70
2023/09/14 14:15:11;;;;;;;0.82;0.68;;;22.50;65.80;;;;;;6295742;28;20414;-70
2023/09/14 14:18:11;;;;;;;1.60;1.00;;;22.50;65.80;;;;;;6292805;28;20032;-70
2023/09/14 14:21:12;;;;;;;0.77;0.60;;;22.50;65.80;;;;;;6294366;28;20425;-70
2023/09/14 14:24:13;;;;;;;1.13;0.98;;;22.50;66.70;;;;;;6293289;28;20027;-70
2023/09/14 14:27:14;;;;;;;1.40;0.80;;;22.50;65.80;;;;;;6293471;28;20028;-70
2023/09/14 14:30:15;;;;;;;1.02;0.77;;;22.50;65.80;;;;;;6292786;28;20033;-70
2023/09/14 14:33:15;;;;;;;1.83;0.98;;;22.50;65.90;;;;;;6293913;28;20021;-70
2023/09/14 14:36:18;;;;;;;1.02;0.82;;;22.40;65.80;;;;;;6294179;28;20021;-68
2023/09/14 14:39:19;;;;;;;1.00;0.80;;;22.50;65.80;;;;;;6293246;28;20033;-68
2023/09/14 14:42:20;;;;;;;0.80;0.60;;;22.40;65.80;;;;;;6293013;28;20028;-68
2023/09/14 14:45:21;;;;;;;4.75;1.42;;;22.50;65.90;;;;;;6293590;28;20538;-68
2023/09/14 14:48:22;;;;;;;1.13;0.90;;;22.40;63.70;;;;;;6292908;28;20080;-68
2023/09/14 14:51:23;;;;;;;1.50;0.98;;;22.40;65.00;;;;;;6292918;28;20416;-68
2023/09/14 14:54:24;;;;;;;3.53;1.08;;;22.40;59.70;;;;;;6292994;28;20054;-69
2023/09/14 14:57:25;;;;;;;2.40;1.00;;;22.40;63.70;;;;;;6295302;28;20056;-69
2023/09/14 15:00:26;;;;;;;2.63;1.20;;;22.40;62.00;;;;;;6294133;28;20024;-69
2023/09/14 15:03:27;;;;;;;4.80;0.98;;;22.50;63.70;;;;;;6298412;28;20119;-69
2023/09/14 15:06:27;;;;;;;1.55;1.08;;;22.50;63.70;;;;;;6320746;28;20024;-69
2023/09/14 15:09:28;;;;;;;3.17;1.25;;;22.50;63.80;;;;;;6320359;28;20024;-70
2023/09/14 15:12:29;;;;;;;6.47;1.55;;;22.50;63.10;;;;;;6320731;28;20028;-70
2023/09/14 15:15:31;;;;;;;8.65;1.40;;;22.50;63.30;;;;;;6297741;28;20052;-70
2023/09/14 15:18:37;;;;;;;8.35;1.60;;;22.50;64.00;;;;;;6293155;28;20028;-70
2023/09/14 15:21:37;;;;;;;9.73;1.20;;;22.50;64.90;;;;;;6294140;28;20507;-70
2023/09/14 15:24:39;;;;;;;42.67;2.25;;;22.50;65.00;;;;;;6295121;28;20021;-69
2023/09/14 15:27:39;;;;;;;55.15;2.40;;;22.60;66.70;;;;;;6302552;28;20055;-69
2023/09/14 15:30:40;;;;;;;45.30;3.40;;;22.60;67.60;;;;;;6293537;28;20024;-69
2023/09/14 15:33:41;;;;;;;44.53;3.40;;;22.60;67.20;;;;;;6294352;28;20048;-67
2023/09/14 15:36:42;;;;;;;37.67;3.08;;;22.60;67.40;;;;;;6294750;28;20486;-67
2023/09/14 15:39:43;;;;;;;54.15;3.22;;;22.50;66.60;;;;;;6292989;28;20491;-68
2023/09/14 15:42:44;;;;;;;30.80;2.75;;;22.50;68.90;;;;;;6303221;28;20123;-68
2023/09/14 15:45:45;;;;;;;32.95;2.53;;;22.60;69.00;;;;;;6301450;28;20020;-69